Time;durP1;ratioP1;P1;durP2;ratioP2;P2;SDS_P1;SDS_P2;PMS_P1;PMS_P2;Temp;Humidity;BMP_temperature;BMP_pressure;BME280_temperature;BME280_humidity;BME280_pressure;Samples;Min_cycle;Max_cycle;Signal;HPM_P1;HPM_P2
2022/09/09 00:00:24;;;;;;;;;;;;;;;-142.75;100.00;76251.41;5033423;28;19923;-70
2022/09/09 00:02:55;;;;;;;;;;;;;;;-142.75;100.00;76247.47;5031698;28;20390;-70
2022/09/09 00:05:26;;;;;;;;;;;;;;;-142.75;100.00;76251.41;5033267;28;20423;-70
2022/09/09 00:07:52;;;;;;;;;;;;;;;-142.75;100.00;76261.25;5032751;28;19971;-70
2022/09/09 00:10:20;;;;;;;;;;;;;;;-142.75;100.00;76243.53;5032927;28;19940;-70
2022/09/09 00:13:04;;;;;;;;;;;;;;;-142.75;100.00;76259.28;5018103;28;19918;-70
2022/09/09 00:15:48;;;;;;;;;;;;;;;-142.75;100.00;76255.34;5013209;28;19928;-70
2022/09/09 00:18:17;;;;;;;;;;;;;;;-142.75;100.00;76251.41;5012738;28;19917;-70
2022/09/09 00:20:58;;;;;;;;;;;;;;;-142.75;100.00;76263.22;5013082;28;19913;-70
2022/09/09 00:23:24;;;;;;;;;;;;;;;-142.75;100.00;76251.41;5011768;28;19997;-70
2022/09/09 00:25:54;;;;;;;;;;;;;;;-142.75;100.00;76259.28;5012763;28;19917;-70
2022/09/09 00:28:20;;;;;;;;;;;;;;;-142.75;100.00;76251.41;5012549;28;19980;-70
2022/09/09 00:30:48;;;;;;;;;;;;;;;-142.75;100.00;76271.09;5011764;28;20012;-70
2022/09/09 00:33:15;;;;;;;;;;;;;;;-142.75;100.00;76251.41;5012990;28;19917;-70
2022/09/09 00:35:51;;;;;;;;;;;;;;;-142.75;100.00;76259.28;5012823;28;19920;-70
2022/09/09 00:38:19;;;;;;;;;;;;;;;-142.75;100.00;76255.34;5012471;28;19967;-70
2022/09/09 00:41:00;;;;;;;;;;;;;;;-142.75;100.00;76259.28;5012753;28;19913;-70
2022/09/09 00:43:25;;;;;;;;;;;;;;;-142.75;100.00;76255.34;5012228;28;19920;-70
2022/09/09 00:45:56;;;;;;;;;;;;;;;-142.75;100.00;76257.31;5012577;28;19913;-70
2022/09/09 00:48:27;;;;;;;;;;;;;;;-142.75;100.00;76253.38;5027358;28;20056;-70
2022/09/09 00:50:56;;;;;;;;;;;;;;;-142.75;100.00;76259.28;5012561;28;19914;-70
2022/09/09 00:53:41;;;;;;;;;;;;;;;-142.75;100.00;76253.38;5012583;28;19959;-70
2022/09/09 00:56:16;;;;;;;;;;;;;;;-142.75;100.00;76257.31;5012542;28;20008;-70
2022/09/09 00:58:58;;;;;;;;;;;;;;;-142.75;100.00;76259.28;5012252;28;19913;-70
2022/09/09 01:01:23;;;;;;;;;;;;;;;-142.75;100.00;76267.16;5012857;28;19924;-70
2022/09/09 01:03:48;;;;;;;;;;;;;;;-142.75;100.00;76263.22;5012562;28;19917;-70
2022/09/09 01:06:30;;;;;;;;;;;;;;;-142.75;100.00;76255.34;5012977;28;20315;-70
2022/09/09 01:09:15;;;;;;;;;;;;;;;-142.75;100.00;76259.28;5012641;28;19943;-70
2022/09/09 01:11:51;;;;;;;;;;;;;;;-142.75;100.00;76259.28;5012533;28;20410;-70
2022/09/09 01:14:34;;;;;;;;;;;;;;;-142.75;100.00;76259.28;5012511;28;19967;-70
2022/09/09 01:17:03;;;;;;;;;;;;;;;-142.75;100.00;76249.44;5012346;28;19913;-70
2022/09/09 01:19:45;;;;;;;;;;;;;;;-142.75;100.00;76237.63;5012671;28;19913;-70
2022/09/09 01:22:16;;;;;;;;;;;;;;;-142.75;100.00;76249.44;5012726;28;19953;-70
2022/09/09 01:25:05;;;;;;;;;;;;;;;-142.75;100.00;76239.59;5012666;28;19913;-70
2022/09/09 01:27:31;;;;;;;;;;;;;;;-142.75;100.00;76243.53;5008988;28;19917;-70
2022/09/09 01:29:56;;;;;;;;;;;;;;;-142.75;100.00;76233.69;5012529;28;19967;-70
2022/09/09 01:32:36;;;;;;;;;;;;;;;-142.75;100.00;76235.66;5011004;28;19914;-70
2022/09/09 01:35:03;;;;;;;;;;;;;;;-142.75;100.00;76223.84;5012576;28;19921;-70
2022/09/09 01:37:28;;;;;;;;;;;;;;;-142.75;100.00;76219.91;5011939;28;19918;-70
2022/09/09 01:39:53;;;;;;;;;;;;;;;-142.75;100.00;76221.88;5010916;28;19914;-70
2022/09/09 01:42:19;;;;;;;;;;;;;;;-142.75;100.00;76225.81;5012294;28;20004;-70
2022/09/09 01:44:44;;;;;;;;;;;;;;;-142.75;100.00;76215.97;5012164;28;20323;-70
2022/09/09 01:47:09;;;;;;;;;;;;;;;-142.75;100.00;76215.97;5011704;28;20298;-70
2022/09/09 01:49:34;;;;;;;;;;;;;;;-142.75;100.00;76219.91;5010953;28;19944;-70
2022/09/09 01:51:59;;;;;;;;;;;;;;;-142.75;100.00;76215.97;5012115;28;20295;-70
2022/09/09 01:54:28;;;;;;;;;;;;;;;-142.75;100.00;76212.03;5015006;28;19914;-70
2022/09/09 01:57:11;;;;;;;;;;;;;;;-142.75;100.00;76212.03;5015170;28;20014;-70
2022/09/09 01:59:56;;;;;;;;;;;;;;;-142.75;100.00;76208.09;5015672;28;19913;-70
2022/09/09 02:02:30;;;;;;;;;;;;;;;-142.75;100.00;76204.16;5015429;28;19913;-70
2022/09/09 02:05:07;;;;;;;;;;;;;;;-142.75;100.00;76208.09;5015526;28;19948;-70
2022/09/09 02:07:40;;;;;;;;;;;;;;;-142.75;100.00;76204.16;5015123;28;19929;-70
2022/09/09 02:10:16;;;;;;;;;;;;;;;-142.75;100.00;76198.28;5014220;28;19913;-70
2022/09/09 02:12:44;;;;;;;;;;;;;;;-142.75;100.00;76192.38;5015459;28;20402;-70
2022/09/09 02:15:22;;;;;;;;;;;;;;;-142.75;100.00;76188.44;5014114;28;19914;-70
2022/09/09 02:17:49;;;;;;;;;;;;;;;-142.75;100.00;76188.44;5030060;28;19913;-70
2022/09/09 02:20:15;;;;;;;;;;;;;;;-142.75;100.00;76192.38;5015350;28;19953;-70
2022/09/09 02:22:43;;;;;;;;;;;;;;;-142.75;100.00;76198.28;5015153;28;19979;-70
2022/09/09 02:25:10;;;;;;;;;;;;;;;-142.75;100.00;76190.41;5015185;28;19917;-70
2022/09/09 02:27:35;;;;;;;;;;;;;;;-142.75;100.00;76192.38;5014630;28;19914;-70
2022/09/09 02:30:02;;;;;;;;;;;;;;;-142.75;100.00;76188.44;5030330;28;20295;-70
2022/09/09 02:32:30;;;;;;;;;;;;;;;-142.75;100.00;76180.56;5014832;28;20375;-70
2022/09/09 02:34:58;;;;;;;;;;;;;;;-142.75;100.00;76174.66;5015106;28;19920;-70
2022/09/09 02:37:25;;;;;;;;;;;;;;;-142.75;100.00;76176.63;5029722;28;20346;-70
2022/09/09 02:39:50;;;;;;;;;;;;;;;-142.75;100.00;76164.81;5014830;28;19918;-70
2022/09/09 02:42:15;;;;;;;;;;;;;;;-142.75;100.00;76174.66;5014839;28;19914;-70
2022/09/09 02:44:41;;;;;;;;;;;;;;;-142.75;100.00;76186.47;5014705;28;19913;-70
2022/09/09 02:47:09;;;;;;;;;;;;;;;-142.75;100.00;76180.56;5014467;28;20000;-70
2022/09/09 02:49:49;;;;;;;;;;;;;;;-142.75;100.00;76180.56;5014474;28;19917;-70
2022/09/09 02:52:16;;;;;;;;;;;;;;;-142.75;100.00;76194.34;5014520;28;19913;-70
2022/09/09 02:54:42;;;;;;;;;;;;;;;-142.75;100.00;76194.34;5014673;28;19914;-70
2022/09/09 02:57:11;;;;;;;;;;;;;;;-142.75;100.00;76188.44;5014292;28;19967;-70
2022/09/09 02:59:37;;;;;;;;;;;;;;;-142.75;100.00;76188.44;5014356;28;19914;-70
2022/09/09 03:02:03;;;;;;;;;;;;;;;-142.75;100.00;76184.50;5014399;28;19913;-70
2022/09/09 03:04:29;;;;;;;;;;;;;;;-142.75;100.00;76190.41;5013763;28;20402;-70
2022/09/09 03:06:54;;;;;;;;;;;;;;;-142.75;100.00;76170.72;5014136;28;19974;-70
2022/09/09 03:09:20;;;;;;;;;;;;;;;-142.75;100.00;76180.56;5014543;28;19922;-70
2022/09/09 03:11:45;;;;;;;;;;;;;;;-142.75;100.00;76162.84;5014201;28;19913;-70
2022/09/09 03:14:11;;;;;;;;;;;;;;;-142.75;100.00;76172.69;5014131;28;19929;-70
2022/09/09 03:16:36;;;;;;;;;;;;;;;-142.75;100.00;76170.72;5013767;28;19914;-70
2022/09/09 03:19:01;;;;;;;;;;;;;;;-142.75;100.00;76168.75;5012970;28;20339;-70
2022/09/09 03:21:27;;;;;;;;;;;;;;;-142.75;100.00;76168.75;5014299;28;19914;-70
2022/09/09 03:23:52;;;;;;;;;;;;;;;-142.75;100.00;76160.88;5014228;28;19920;-70
2022/09/09 03:26:17;;;;;;;;;;;;;;;-142.75;100.00;76168.75;5014080;28;19976;-70
2022/09/09 03:28:43;;;;;;;;;;;;;;;-142.75;100.00;76170.72;5013666;28;20108;-70
2022/09/09 03:31:10;;;;;;;;;;;;;;;-142.75;100.00;76168.75;5013926;28;19914;-70
2022/09/09 03:33:36;;;;;;;;;;;;;;;-142.75;100.00;76168.75;5013870;28;19917;-70
2022/09/09 03:36:02;;;;;;;;;;;;;;;-142.75;100.00;76162.84;5013754;28;20310;-70
2022/09/09 03:38:28;;;;;;;;;;;;;;;-142.75;100.00;76164.81;5012354;28;19920;-70
2022/09/09 03:41:01;;;;;;;;;;;;;;;-142.75;100.00;76168.75;5013704;28;19939;-70
2022/09/09 03:43:27;;;;;;;;;;;;;;;-142.75;100.00;76164.81;5013690;28;19940;-70
2022/09/09 03:45:53;;;;;;;;;;;;;;;-142.75;100.00;76180.56;5013435;28;19917;-70
2022/09/09 03:48:18;;;;;;;;;;;;;;;-142.75;100.00;76184.50;5013097;28;19917;-70
2022/09/09 03:50:44;;;;;;;;;;;;;;;-142.75;100.00;76178.59;5013450;28;20001;-70
2022/09/09 03:53:09;;;;;;;;;;;;;;;-142.75;100.00;76186.47;5013435;28;19913;-70
2022/09/09 03:55:35;;;;;;;;;;;;;;;-142.75;100.00;76186.47;5012056;28;20008;-70
2022/09/09 03:58:00;;;;;;;;;;;;;;;-142.75;100.00;76186.47;5013101;28;19920;-70
2022/09/09 04:00:26;;;;;;;;;;;;;;;-142.75;100.00;76184.50;5013181;28;19913;-70
2022/09/09 04:02:53;;;;;;;;;;;;;;;-142.75;100.00;76188.44;5013273;28;19913;-70
2022/09/09 04:05:19;;;;;;;;;;;;;;;-142.75;100.00;76184.50;5013178;28;19913;-70
2022/09/09 04:07:44;;;;;;;;;;;;;;;-142.75;100.00;76184.50;5012788;28;19944;-70
2022/09/09 04:10:09;;;;;;;;;;;;;;;-142.75;100.00;76178.59;5013182;28;19913;-70
2022/09/09 04:12:34;;;;;;;;;;;;;;;-142.75;100.00;76172.69;5012999;28;19914;-70
2022/09/09 04:15:01;;;;;;;;;;;;;;;-142.75;100.00;76176.63;5012961;28;19913;-70
2022/09/09 04:17:27;;;;;;;;;;;;;;;-142.75;100.00;76180.56;5012705;28;19913;-70
2022/09/09 04:19:52;;;;;;;;;;;;;;;-142.75;100.00;76184.50;5013095;28;20040;-70
2022/09/09 04:22:17;;;;;;;;;;;;;;;-142.75;100.00;76180.56;5013063;28;20429;-70
2022/09/09 04:24:42;;;;;;;;;;;;;;;-142.75;100.00;76178.59;5012832;28;20458;-70
2022/09/09 04:27:09;;;;;;;;;;;;;;;-142.75;100.00;76172.69;5011892;28;20206;-70
2022/09/09 04:29:34;;;;;;;;;;;;;;;-142.75;100.00;76168.75;5013177;28;20005;-70
2022/09/09 04:32:00;;;;;;;;;;;;;;;-142.75;100.00;76168.75;5013427;28;20526;-70
2022/09/09 04:34:25;;;;;;;;;;;;;;;-142.75;100.00;76164.81;5013239;28;19917;-70
2022/09/09 04:36:51;;;;;;;;;;;;;;;-142.75;100.00;76166.78;5012241;28;19921;-70
2022/09/09 04:39:16;;;;;;;;;;;;;;;-142.75;100.00;76162.84;5012720;28;19914;-70
2022/09/09 04:41:42;;;;;;;;;;;;;;;-142.75;100.00;76160.88;5012593;28;20371;-70
2022/09/09 04:44:07;;;;;;;;;;;;;;;-142.75;100.00;76168.75;5012442;28;19913;-70
2022/09/09 04:46:34;;;;;;;;;;;;;;;-142.75;100.00;76164.81;5012648;28;19917;-70
2022/09/09 04:48:59;;;;;;;;;;;;;;;-142.75;100.00;76160.88;5010259;28;19922;-70
2022/09/09 04:51:24;;;;;;;;;;;;;;;-142.75;100.00;76172.69;5011848;28;20000;-70
2022/09/09 04:53:50;;;;;;;;;;;;;;;-142.75;100.00;76166.78;5012281;28;19919;-70
2022/09/09 04:56:16;;;;;;;;;;;;;;;-142.75;100.00;76172.69;5012207;28;19971;-70
2022/09/09 04:58:45;;;;;;;;;;;;;;;-142.75;100.00;76176.63;5011475;28;19920;-70
2022/09/09 05:01:21;;;;;;;;;;;;;;;-142.75;100.00;76166.78;5012164;28;19914;-70
2022/09/09 05:03:47;;;;;;;;;;;;;;;-142.75;100.00;76174.66;5012364;28;20552;-70
2022/09/09 05:06:14;;;;;;;;;;;;;;;-142.75;100.00;76172.69;5012432;28;19913;-70
2022/09/09 05:08:40;;;;;;;;;;;;;;;-142.75;100.00;76178.59;5012146;28;19918;-70
2022/09/09 05:11:15;;;;;;;;;;;;;;;-142.75;100.00;76178.59;5012291;28;19968;-70
2022/09/09 05:13:40;;;;;;;;;;;;;;;-142.75;100.00;76178.59;5012282;28;19914;-70
2022/09/09 05:16:05;;;;;;;;;;;;;;;-142.75;100.00;76182.53;5010980;28;19913;-70
2022/09/09 05:18:30;;;;;;;;;;;;;;;-142.75;100.00;76180.56;5012078;28;19917;-70
2022/09/09 05:21:00;;;;;;;;;;;;;;;-142.75;100.00;76170.72;5012205;28;20361;-70
2022/09/09 05:23:25;;;;;;;;;;;;;;;-142.75;100.00;76168.75;5012245;28;19913;-70
2022/09/09 05:25:55;;;;;;;;;;;;;;;-142.75;100.00;76166.78;5012080;28;19921;-70
2022/09/09 05:28:20;;;;;;;;;;;;;;;-142.75;100.00;76168.75;5013187;28;19918;-70
2022/09/09 05:30:45;;;;;;;;;;;;;;;-142.75;100.00;76172.69;5015705;28;19936;-70
2022/09/09 05:33:10;;;;;;;;;;;;;;;-142.75;100.00;76168.75;5016679;28;19970;-70
2022/09/09 05:35:35;;;;;;;;;;;;;;;-142.75;100.00;76164.81;5016431;28;19936;-70
2022/09/09 05:38:01;;;;;;;;;;;;;;;-142.75;100.00;76153.00;5075223;22;20404;-67
2022/09/09 05:40:26;;;;;;;;;;;;;;;-142.75;100.00;76158.91;5073572;28;19920;-67
2022/09/09 05:42:53;;;;;;;;;;;;;;;-142.75;100.00;76145.13;5087835;28;20335;-68
2022/09/09 05:45:19;;;;;;;;;;;;;;;-142.75;100.00;76149.06;5075039;28;19912;-67
2022/09/09 05:47:44;;;;;;;;;;;;;;;-142.75;100.00;76135.28;5074366;28;19916;-67
2022/09/09 05:50:09;;;;;;;;;;;;;;;-142.75;100.00;76137.25;5073969;28;19935;-68
2022/09/09 05:52:35;;;;;;;;;;;;;;;-142.75;100.00;76125.44;5073903;28;19912;-68
2022/09/09 05:55:00;;;;;;;;;;;;;;;-142.75;100.00;76121.50;5073873;28;19912;-68
2022/09/09 05:57:25;;;;;;;;;;;;;;;-142.75;100.00;76113.63;5074552;28;20407;-68
2022/09/09 05:59:50;;;;;;;;;;;;;;;-142.75;100.00;76097.88;5075100;28;20011;-68
2022/09/09 06:02:16;;;;;;;;;;;;;;;-142.75;100.00;76093.94;5075079;28;19916;-68
2022/09/09 06:04:41;;;;;;;;;;;;;;;-142.75;100.00;76088.03;5075078;28;19913;-68
2022/09/09 06:07:06;;;;;;;;;;;;;;;-142.75;100.00;76088.03;5073248;28;20435;-68
2022/09/09 06:09:32;;;;;;;;;;;;;;;-142.75;100.00;76086.06;5073568;28;20445;-68
2022/09/09 06:11:58;;;;;;;;;;;;;;;-142.75;100.00;76074.25;5074806;28;19965;-68
2022/09/09 06:14:24;;;;;;;;;;;;;;;-142.75;100.00;76054.59;5074900;28;19919;-68
2022/09/09 06:16:49;;;;;;;;;;;;;;;-142.75;100.00;76066.41;5074441;28;19912;-69
2022/09/09 06:19:14;;;;;;;;;;;;;;;-142.75;100.00;76066.41;5074907;28;19912;-68
2022/09/09 06:21:40;;;;;;;;;;;;;;;-142.75;100.00;76062.47;5074724;28;19919;-68
2022/09/09 06:24:07;;;;;;;;;;;;;;;-142.75;100.00;76070.34;5074716;28;20449;-68
2022/09/09 06:26:33;;;;;;;;;;;;;;;-142.75;100.00;76074.25;5074228;28;19923;-66
2022/09/09 06:28:59;;;;;;;;;;;;;;;-142.75;100.00;76066.41;5074455;28;19924;-67
2022/09/09 06:31:25;;;;;;;;;;;;;;;-142.75;100.00;76070.34;5074498;28;19913;-67
2022/09/09 06:33:52;;;;;;;;;;;;;;;-142.75;100.00;76050.66;5073240;28;19916;-68
2022/09/09 06:36:21;;;;;;;;;;;;;;;-142.75;100.00;76042.78;5074503;28;19952;-68
2022/09/09 06:38:47;;;;;;;;;;;;;;;-142.75;100.00;76044.75;5073798;28;19916;-67
2022/09/09 06:41:13;;;;;;;;;;;;;;;-142.75;100.00;76042.78;5073255;28;19916;-68
2022/09/09 06:43:38;;;;;;;;;;;;;;;-142.75;100.00;76040.81;5074245;28;19919;-68
2022/09/09 06:46:05;;;;;;;;;;;;;;;-142.75;100.00;76036.88;5074315;28;19912;-68
2022/09/09 06:48:30;;;;;;;;;;;;;;;-142.75;100.00;76034.91;5073766;28;19917;-68
2022/09/09 06:51:06;;;;;;;;;;;;;;;-142.75;100.00;76042.78;5074177;28;19957;-67
2022/09/09 06:53:33;;;;;;;;;;;;;;;-142.75;100.00;76038.84;5072813;28;20332;-67
2022/09/09 06:55:59;;;;;;;;;;;;;;;-142.75;100.00;76029.00;5074045;28;20523;-67
2022/09/09 06:58:24;;;;;;;;;;;;;;;-142.75;100.00;76025.06;5073677;28;19919;-67
2022/09/09 07:00:49;;;;;;;;;;;;;;;-142.75;100.00;76032.94;5073976;28;19920;-67
2022/09/09 07:03:14;;;;;;;;;;;;;;;-142.75;100.00;76027.03;5073936;28;19913;-68
2022/09/09 07:05:40;;;;;;;;;;;;;;;-142.75;100.00;76030.97;5073854;28;19912;-68
2022/09/09 07:08:05;;;;;;;;;;;;;;;-142.75;100.00;76025.06;5073368;28;19917;-68
2022/09/09 07:10:30;;;;;;;;;;;;;;;-142.75;100.00;76011.28;5073717;28;19912;-68
2022/09/09 07:12:56;;;;;;;;;;;;;;;-142.75;100.00;76007.34;5073759;28;20263;-67
2022/09/09 07:15:22;;;;;;;;;;;;;;;-142.75;100.00;75999.47;5072302;28;19913;-67
2022/09/09 07:17:48;;;;;;;;;;;;;;;-142.75;100.00;75997.50;5073237;28;19958;-67
2022/09/09 07:20:14;;;;;;;;;;;;;;;-142.75;100.00;75991.59;5072290;28;19913;-70
2022/09/09 07:22:39;;;;;;;;;;;;;;;-142.75;100.00;75995.53;5073924;28;20003;-66
2022/09/09 07:25:05;;;;;;;;;;;;;;;-142.75;100.00;75991.59;5073311;28;19912;-67
2022/09/09 07:27:30;;;;;;;;;;;;;;;-142.75;100.00;75991.59;5073076;28;19913;-67
2022/09/09 07:29:55;;;;;;;;;;;;;;;-142.75;100.00;75983.72;5057147;28;19963;-67
2022/09/09 07:32:21;;;;;;;;;;;;;;;-142.75;100.00;75995.53;5053350;28;19913;-67
2022/09/09 07:34:46;;;;;;;;;;;;;;;-142.75;100.00;75987.66;5053212;28;20306;-66
2022/09/09 07:37:13;;;;;;;;;;;;;;;-142.75;100.00;75989.63;5051472;28;20417;-67
2022/09/09 07:39:38;;;;;;;;;;;;;;;-142.75;100.00;75989.63;5057899;28;19997;-67
2022/09/09 07:42:04;;;;;;;;;;;;;;;-142.75;100.00;75989.63;5062088;28;20393;-67
2022/09/09 07:44:32;;;;;;;;;;;;;;;-142.75;100.00;75991.59;5062234;28;20531;-67
2022/09/09 07:46:57;;;;;;;;;;;;;;;-142.75;100.00;76011.28;5059013;28;20006;-67
2022/09/09 07:49:22;;;;;;;;;;;;;;;-142.75;100.00;76017.19;5060204;28;20485;-67
2022/09/09 07:51:49;;;;;;;;;;;;;;;-142.75;100.00;76013.25;5055015;28;19913;-67
2022/09/09 07:54:15;;;;;;;;;;;;;;;-142.75;100.00;76009.31;5061940;28;20396;-67
2022/09/09 07:56:40;;;;;;;;;;;;;;;-142.75;100.00;76019.16;5060324;28;19921;-66
2022/09/09 07:59:06;;;;;;;;;;;;;;;-142.75;100.00;76007.34;5061895;28;19932;-67
2022/09/09 08:01:32;;;;;;;;;;;;;;;-142.75;100.00;75999.47;5057435;28;19917;-67
2022/09/09 08:04:03;;;;;;;;;;;;;;;-142.75;100.00;76015.22;5063262;28;19916;-67
2022/09/09 08:06:30;;;;;;;;;;;;;;;-142.75;100.00;76021.13;5057561;28;20341;-67
2022/09/09 08:08:55;;;;;;;;;;;;;;;-142.75;100.00;76015.22;5061276;28;20451;-67
2022/09/09 08:11:22;;;;;;;;;;;;;;;-142.75;100.00;76003.41;5060925;28;19916;-67
2022/09/09 08:13:48;;;;;;;;;;;;;;;-142.75;100.00;75999.47;5058021;28;19916;-66
2022/09/09 08:16:15;;;;;;;;;;;;;;;-142.75;100.00;75999.47;5060172;28;19975;-67
2022/09/09 08:18:41;;;;;;;;;;;;;;;-142.75;100.00;76003.41;5062985;28;20381;-67
2022/09/09 08:21:08;;;;;;;;;;;;;;;-142.75;100.00;76001.44;5060248;28;19923;-66
2022/09/09 08:23:34;;;;;;;;;;;;;;;-142.75;100.00;75997.50;5063723;28;19935;-67
2022/09/09 08:26:04;;;;;;;;;;;;;;;-142.75;100.00;76001.44;5061184;28;19916;-66
2022/09/09 08:28:30;;;;;;;;;;;;;;;-142.75;100.00;75993.56;5061142;28;20489;-66
2022/09/09 08:30:55;;;;;;;;;;;;;;;-142.75;100.00;75991.59;5059849;28;19912;-67
2022/09/09 08:33:21;;;;;;;;;;;;;;;-142.75;100.00;75999.47;5059098;28;19924;-68
2022/09/09 08:35:52;;;;;;;;;;;;;;;-142.75;100.00;75991.59;5052171;28;20366;-67
2022/09/09 08:38:18;;;;;;;;;;;;;;;-142.75;100.00;75991.59;5050432;28;19917;-68
2022/09/09 08:40:49;;;;;;;;;;;;;;;-142.75;100.00;75991.59;5052161;28;20035;-66
2022/09/09 08:43:17;;;;;;;;;;;;;;;-142.75;100.00;75999.47;5052133;28;19913;-67
2022/09/09 08:46:03;;;;;;;;;;;;;;;-142.75;100.00;75991.59;5052152;28;20374;-67
2022/09/09 08:48:52;;;;;;;;;;;;;;;-142.75;100.00;75997.50;5051564;28;20019;-68
2022/09/09 08:51:18;;;;;;;;;;;;;;;-142.75;100.00;75995.53;5050890;28;19913;-67
2022/09/09 08:53:46;;;;;;;;;;;;;;;-142.75;100.00;75999.47;5052091;28;19920;-67
2022/09/09 08:56:13;;;;;;;;;;;;;;;-142.75;100.00;76001.44;5052006;28;19956;-67
2022/09/09 08:58:43;;;;;;;;;;;;;;;-142.75;100.00;76003.41;5051643;28;19920;-67
2022/09/09 09:01:09;;;;;;;;;;;;;;;-142.75;100.00;75997.50;5052297;28;19919;-67
2022/09/09 09:03:43;;;;;;;;;;;;;;;-142.75;100.00;76003.41;5053856;28;19913;-68
2022/09/09 09:06:16;;;;;;;;;;;;;;;-142.75;100.00;76007.34;5056022;28;19913;-67
2022/09/09 09:08:51;;;;;;;;;;;;;;;-142.75;100.00;75995.53;5055760;28;20425;-67
2022/09/09 09:11:16;;;;;;;;;;;;;;;-142.75;100.00;75999.47;5056048;28;20371;-67
2022/09/09 09:13:47;;;;;;;;;;;;;;;-142.75;100.00;75995.53;5055985;28;19924;-68
2022/09/09 09:16:19;;;;;;;;;;;;;;;-142.75;100.00;75987.66;5055882;28;19917;-67
2022/09/09 09:18:44;;;;;;;;;;;;;;;-142.75;100.00;75993.56;5055634;28;19913;-68
2022/09/09 09:21:20;;;;;;;;;;;;;;;-142.75;100.00;76005.38;5054499;28;20389;-68
2022/09/09 09:23:51;;;;;;;;;;;;;;;-142.75;100.00;75991.59;5055804;28;20448;-67
2022/09/09 09:26:17;;;;;;;;;;;;;;;-142.75;100.00;75991.59;5055726;28;19920;-67
2022/09/09 09:28:43;;;;;;;;;;;;;;;-142.75;100.00;75999.47;5055406;28;19921;-68
2022/09/09 09:31:12;;;;;;;;;;;;;;;-142.75;100.00;75999.47;5055812;28;19919;-68
2022/09/09 09:33:40;;;;;;;;;;;;;;;-142.75;100.00;76007.34;5054362;28;19959;-68
2022/09/09 09:36:07;;;;;;;;;;;;;;;-142.75;100.00;76015.22;5055519;28;20007;-67
2022/09/09 09:38:33;;;;;;;;;;;;;;;-142.75;100.00;76007.34;5053878;28;20328;-67
2022/09/09 09:41:00;;;;;;;;;;;;;;;-142.75;100.00;75993.56;5054221;28;19913;-67
2022/09/09 09:43:27;;;;;;;;;;;;;;;-142.75;100.00;75983.72;5055445;28;19913;-67
2022/09/09 09:45:52;;;;;;;;;;;;;;;-142.75;100.00;75975.84;5054215;28;19917;-68
2022/09/09 09:48:18;;;;;;;;;;;;;;;-142.75;100.00;75964.03;5054941;28;19963;-67
2022/09/09 09:50:48;;;;;;;;;;;;;;;-142.75;100.00;75926.66;5055181;28;20290;-67
2022/09/09 09:53:19;;;;;;;;;;;;;;;-142.75;100.00;75897.13;5055243;28;19945;-67
2022/09/09 09:55:54;;;;;;;;;;;;;;;-142.75;100.00;75863.66;5055240;28;19920;-67
2022/09/09 09:58:19;;;;;;;;;;;;;;;-142.75;100.00;75849.91;5054867;28;20433;-68
2022/09/09 10:00:51;;;;;;;;;;;;;;;-142.75;100.00;75857.78;5055175;28;19913;-68
2022/09/09 10:03:22;;;;;;;;;;;;;;;-142.75;100.00;75877.44;5055023;28;20275;-68
2022/09/09 10:05:47;;;;;;;;;;;;;;;-142.75;100.00;75871.53;5055000;28;19913;-68
2022/09/09 10:08:19;;;;;;;;;;;;;;;-142.75;100.00;75869.56;5054233;28;19916;-68
2022/09/09 10:10:51;;;;;;;;;;;;;;;-142.75;100.00;75875.47;5053597;28;20374;-68
2022/09/09 10:13:28;;;;;;;;;;;;;;;-142.75;100.00;75865.63;5054934;28;19913;-67
2022/09/09 10:15:56;;;;;;;;;;;;;;;-142.75;100.00;75865.63;5054790;28;19913;-68
2022/09/09 10:18:41;;;;;;;;;;;;;;;-142.75;100.00;75891.22;5069851;28;19912;-66
2022/09/09 10:21:06;;;;;;;;;;;;;;;-142.75;100.00;75922.72;5094973;28;19919;-67
2022/09/09 10:23:37;;;;;;;;;;;;;;;-142.75;100.00;75944.38;5094852;28;19916;-67
2022/09/09 10:26:09;;;;;;;;;;;;;;;-142.75;100.00;75952.25;5094744;28;19938;-66
2022/09/09 10:28:37;;;;;;;;;;;;;;;-142.75;100.00;75956.19;5065179;28;19924;-66
2022/09/09 10:31:05;;;;;;;;;;;;;;;-142.75;100.00;75956.19;5062947;28;19920;-66
2022/09/09 10:33:49;;;;;;;;;;;;;;;-142.75;100.00;75964.03;5064466;28;19912;-67
2022/09/09 10:36:22;;;;;;;;;;;;;;;-142.75;100.00;75964.03;5064139;28;19919;-67
2022/09/09 10:38:52;;;;;;;;;;;;;;;-142.75;100.00;75962.09;5062752;28;19916;-67
2022/09/09 10:41:30;;;;;;;;;;;;;;;-142.75;100.00;75964.03;5063377;28;19912;-67
2022/09/09 10:43:56;;;;;;;;;;;;;;;-142.75;100.00;75960.13;5063646;28;20382;-68
2022/09/09 10:46:25;;;;;;;;;;;;;;;-142.75;100.00;75958.16;5064688;28;19929;-67
2022/09/09 10:48:53;;;;;;;;;;;;;;;-142.75;100.00;75952.25;5062744;28;19966;-67
2022/09/09 10:51:22;;;;;;;;;;;;;;;-142.75;100.00;75952.25;5061741;28;20328;-68
2022/09/09 10:54:06;;;;;;;;;;;;;;;-142.75;100.00;75954.22;5063284;28;19948;-67
2022/09/09 10:56:34;;;;;;;;;;;;;;;-142.75;100.00;75954.22;5059929;28;20046;-64
2022/09/09 10:59:07;;;;;;;;;;;;;;;-142.75;100.00;75952.25;5055710;28;20378;-67
2022/09/09 11:01:44;;;;;;;;;;;;;;;-142.75;100.00;75936.50;5052971;28;20344;-68
2022/09/09 11:04:19;;;;;;;;;;;;;;;-142.75;100.00;75936.50;5053919;28;19913;-68
2022/09/09 11:06:47;;;;;;;;;;;;;;;-142.75;100.00;75930.59;5052206;28;19913;-67
2022/09/09 11:09:23;;;;;;;;;;;;;;;-142.75;100.00;75887.28;5061532;28;19920;-68
2022/09/09 11:11:53;;;;;;;;;;;;;;;-142.75;100.00;75806.59;5064331;28;20018;-69
2022/09/09 11:14:42;;;;;;;;;;;;;;;-142.75;100.00;75804.63;5062930;28;19986;-67
2022/09/09 11:17:15;;;;;;;;;;;;;;;-142.75;100.00;75806.59;5066679;28;19919;-68
2022/09/09 11:19:41;;;;;;;;;;;;;;;-142.75;100.00;75808.56;5064565;28;19920;-67
2022/09/09 11:22:14;;;;;;;;;;;;;;;-142.75;100.00;75812.50;5062942;28;19936;-68
2022/09/09 11:24:40;;;;;;;;;;;;;;;-142.75;100.00;75849.91;5070595;28;19919;-68
2022/09/09 11:27:16;;;;;;;;;;;;;;;-142.75;100.00;75816.44;5066305;28;19916;-66
2022/09/09 11:29:41;;;;;;;;;;;;;;;-142.75;100.00;75806.59;5061918;28;19921;-67
2022/09/09 11:32:25;;;;;;;;;;;;;;;-142.75;100.00;75808.56;5063181;28;19918;-66
2022/09/09 11:35:10;;;;;;;;;;;;;;;-142.75;100.00;75836.13;5053212;28;19924;-67
2022/09/09 11:37:37;;;;;;;;;;;;;;;-142.75;100.00;75826.28;5081524;22;19929;-69
2022/09/09 11:40:09;;;;;;;;;;;;;;;-142.75;100.00;75836.13;5052008;28;19917;-69
2022/09/09 11:42:35;;;;;;;;;;;;;;;-142.75;100.00;75845.97;5052944;28;19912;-69
2022/09/09 11:45:22;;;;;;;;;;;;;;;-142.75;100.00;75867.59;5053144;28;19916;-69
2022/09/09 11:47:54;;;;;;;;;;;;;;;-142.75;100.00;75887.28;5050858;28;19917;-70
2022/09/09 11:50:20;;;;;;;;;;;;;;;-142.75;100.00;75897.13;5052232;28;19913;-69
2022/09/09 11:52:47;;;;;;;;;;;;;;;-142.75;100.00;75899.09;5068509;28;19912;-69
2022/09/09 11:55:26;;;;;;;;;;;;;;;-142.75;100.00;75920.75;5054292;28;19937;-70
2022/09/09 11:57:57;;;;;;;;;;;;;;;-142.75;100.00;75910.91;5052392;28;20027;-69
2022/09/09 12:00:43;;;;;;;;;;;;;;;-142.75;100.00;75906.97;5053042;28;20367;-69
2022/09/09 12:03:27;;;;;;;;;;;;;;;-142.75;100.00;75895.16;5052133;28;19924;-70
2022/09/09 12:05:53;;;;;;;;;;;;;;;-142.75;100.00;75906.97;5051681;28;19927;-70
2022/09/09 12:08:24;;;;;;;;;;;;;;;-142.75;100.00;75889.25;5052094;28;20271;-69
2022/09/09 12:10:56;;;;;;;;;;;;;;;-142.75;100.00;75905.00;5052735;28;19956;-69
2022/09/09 12:13:23;;;;;;;;;;;;;;;-142.75;100.00;75924.69;5052585;28;19916;-70
2022/09/09 12:15:50;;;;;;;;;;;;;;;-142.75;100.00;75950.28;5053338;28;20382;-69
2022/09/09 12:18:22;;;;;;;;;;;;;;;-142.75;100.00;75950.28;5052696;28;19920;-70
2022/09/09 12:20:54;;;;;;;;;;;;;;;-142.75;100.00;75967.97;5052637;28;19962;-70
2022/09/09 12:23:20;;;;;;;;;;;;;;;-142.75;100.00;75979.78;5052734;28;20003;-70
2022/09/09 12:26:01;;;;;;;;;;;;;;;-142.75;100.00;75983.72;5067937;28;19956;-69